sensor_id;sensor_type;location;lat;lon;timestamp;P1;durP1;ratioP1;P2;durP2;ratioP2
81223;SDS011;70698;44.402;18.522;2024-02-26T00:02:15;319.38;;;126.20;;
81223;SDS011;70698;44.402;18.522;2024-02-26T00:04:41;266.55;;;103.75;;
81223;SDS011;70698;44.402;18.522;2024-02-26T00:07:07;276.85;;;102.55;;
81223;SDS011;70698;44.402;18.522;2024-02-26T00:09:33;325.33;;;128.85;;
81223;SDS011;70698;44.402;18.522;2024-02-26T00:12:04;412.05;;;155.57;;
81223;SDS011;70698;44.402;18.522;2024-02-26T00:14:33;420.55;;;167.60;;
81223;SDS011;70698;44.402;18.522;2024-02-26T00:16:59;363.33;;;143.27;;
81223;SDS011;70698;44.402;18.522;2024-02-26T00:19:25;253.52;;;103.60;;
81223;SDS011;70698;44.402;18.522;2024-02-26T00:21:50;94.45;;;39.05;;
81223;SDS011;70698;44.402;18.522;2024-02-26T00:24:16;101.10;;;41.35;;
81223;SDS011;70698;44.402;18.522;2024-02-26T00:26:42;151.25;;;55.90;;
81223;SDS011;70698;44.402;18.522;2024-02-26T00:29:07;187.43;;;65.35;;
81223;SDS011;70698;44.402;18.522;2024-02-26T00:31:33;148.45;;;54.28;;
81223;SDS011;70698;44.402;18.522;2024-02-26T00:33:59;143.73;;;54.33;;
81223;SDS011;70698;44.402;18.522;2024-02-26T00:36:25;112.57;;;47.75;;
81223;SDS011;70698;44.402;18.522;2024-02-26T00:38:51;108.65;;;41.92;;
81223;SDS011;70698;44.402;18.522;2024-02-26T00:41:17;90.47;;;37.70;;
81223;SDS011;70698;44.402;18.522;2024-02-26T00:43:43;189.52;;;76.43;;
81223;SDS011;70698;44.402;18.522;2024-02-26T00:46:09;209.73;;;90.65;;
81223;SDS011;70698;44.402;18.522;2024-02-26T00:48:35;139.63;;;56.65;;
81223;SDS011;70698;44.402;18.522;2024-02-26T00:51:00;89.38;;;39.63;;
81223;SDS011;70698;44.402;18.522;2024-02-26T00:53:26;148.73;;;58.03;;
81223;SDS011;70698;44.402;18.522;2024-02-26T00:55:52;110.80;;;46.47;;
81223;SDS011;70698;44.402;18.522;2024-02-26T00:58:17;83.60;;;34.80;;
81223;SDS011;70698;44.402;18.522;2024-02-26T01:00:44;122.13;;;44.92;;
81223;SDS011;70698;44.402;18.522;2024-02-26T01:03:09;111.72;;;41.10;;
81223;SDS011;70698;44.402;18.522;2024-02-26T01:05:35;105.00;;;40.65;;
81223;SDS011;70698;44.402;18.522;2024-02-26T01:08:02;89.25;;;36.17;;
81223;SDS011;70698;44.402;18.522;2024-02-26T01:10:28;91.05;;;36.80;;
81223;SDS011;70698;44.402;18.522;2024-02-26T01:12:54;80.53;;;33.33;;
81223;SDS011;70698;44.402;18.522;2024-02-26T01:15:19;72.88;;;32.25;;
81223;SDS011;70698;44.402;18.522;2024-02-26T01:17:49;132.80;;;54.38;;
81223;SDS011;70698;44.402;18.522;2024-02-26T01:20:16;194.68;;;79.95;;
81223;SDS011;70698;44.402;18.522;2024-02-26T01:22:42;184.60;;;81.70;;
81223;SDS011;70698;44.402;18.522;2024-02-26T01:25:08;145.82;;;62.40;;
81223;SDS011;70698;44.402;18.522;2024-02-26T01:27:35;161.88;;;70.07;;
81223;SDS011;70698;44.402;18.522;2024-02-26T01:30:02;162.38;;;71.60;;
81223;SDS011;70698;44.402;18.522;2024-02-26T01:32:31;169.27;;;74.68;;
81223;SDS011;70698;44.402;18.522;2024-02-26T01:34:57;128.55;;;58.53;;
81223;SDS011;70698;44.402;18.522;2024-02-26T01:37:22;88.38;;;40.13;;
81223;SDS011;70698;44.402;18.522;2024-02-26T01:39:48;72.22;;;33.33;;
81223;SDS011;70698;44.402;18.522;2024-02-26T01:42:14;89.25;;;41.63;;
81223;SDS011;70698;44.402;18.522;2024-02-26T01:44:39;93.65;;;41.30;;
81223;SDS011;70698;44.402;18.522;2024-02-26T01:47:05;55.33;;;25.48;;
81223;SDS011;70698;44.402;18.522;2024-02-26T01:49:34;63.05;;;29.58;;
81223;SDS011;70698;44.402;18.522;2024-02-26T01:52:00;83.32;;;39.08;;
81223;SDS011;70698;44.402;18.522;2024-02-26T01:54:28;89.95;;;40.10;;
81223;SDS011;70698;44.402;18.522;2024-02-26T01:56:55;93.97;;;40.75;;
81223;SDS011;70698;44.402;18.522;2024-02-26T01:59:21;87.43;;;39.55;;
81223;SDS011;70698;44.402;18.522;2024-02-26T02:01:48;75.18;;;35.03;;
81223;SDS011;70698;44.402;18.522;2024-02-26T02:04:19;93.75;;;40.38;;
81223;SDS011;70698;44.402;18.522;2024-02-26T02:06:45;60.55;;;28.58;;
81223;SDS011;70698;44.402;18.522;2024-02-26T02:09:11;79.82;;;34.72;;
81223;SDS011;70698;44.402;18.522;2024-02-26T02:11:37;46.50;;;22.55;;
81223;SDS011;70698;44.402;18.522;2024-02-26T02:14:03;46.08;;;20.00;;
81223;SDS011;70698;44.402;18.522;2024-02-26T02:16:28;66.03;;;31.15;;
81223;SDS011;70698;44.402;18.522;2024-02-26T02:18:54;82.32;;;38.83;;
81223;SDS011;70698;44.402;18.522;2024-02-26T02:21:20;76.28;;;36.72;;
81223;SDS011;70698;44.402;18.522;2024-02-26T02:23:46;71.75;;;32.90;;
81223;SDS011;70698;44.402;18.522;2024-02-26T02:26:15;81.65;;;36.58;;
81223;SDS011;70698;44.402;18.522;2024-02-26T02:28:41;53.70;;;25.05;;
81223;SDS011;70698;44.402;18.522;2024-02-26T02:31:07;104.32;;;46.70;;
81223;SDS011;70698;44.402;18.522;2024-02-26T02:33:33;102.13;;;44.63;;
81223;SDS011;70698;44.402;18.522;2024-02-26T02:36:00;42.15;;;21.05;;
81223;SDS011;70698;44.402;18.522;2024-02-26T02:38:25;38.60;;;19.45;;
81223;SDS011;70698;44.402;18.522;2024-02-26T02:40:52;29.42;;;14.57;;
81223;SDS011;70698;44.402;18.522;2024-02-26T02:43:18;17.65;;;11.30;;
81223;SDS011;70698;44.402;18.522;2024-02-26T02:45:43;33.83;;;17.25;;
81223;SDS011;70698;44.402;18.522;2024-02-26T02:48:10;55.63;;;22.55;;
81223;SDS011;70698;44.402;18.522;2024-02-26T02:50:36;69.25;;;31.05;;
81223;SDS011;70698;44.402;18.522;2024-02-26T02:53:02;72.10;;;33.30;;
81223;SDS011;70698;44.402;18.522;2024-02-26T02:55:28;59.65;;;28.02;;
81223;SDS011;70698;44.402;18.522;2024-02-26T02:57:53;62.28;;;30.23;;
81223;SDS011;70698;44.402;18.522;2024-02-26T03:00:19;64.28;;;28.95;;
81223;SDS011;70698;44.402;18.522;2024-02-26T03:02:45;52.50;;;24.77;;
81223;SDS011;70698;44.402;18.522;2024-02-26T03:05:11;61.75;;;28.48;;
81223;SDS011;70698;44.402;18.522;2024-02-26T03:07:37;78.25;;;34.05;;
81223;SDS011;70698;44.402;18.522;2024-02-26T03:10:03;65.68;;;33.47;;
81223;SDS011;70698;44.402;18.522;2024-02-26T03:12:29;53.92;;;27.27;;
81223;SDS011;70698;44.402;18.522;2024-02-26T03:14:55;39.50;;;19.95;;
81223;SDS011;70698;44.402;18.522;2024-02-26T03:17:21;71.20;;;33.90;;
81223;SDS011;70698;44.402;18.522;2024-02-26T03:19:49;76.95;;;33.20;;
81223;SDS011;70698;44.402;18.522;2024-02-26T03:22:18;93.10;;;42.50;;
81223;SDS011;70698;44.402;18.522;2024-02-26T03:24:45;76.10;;;37.90;;
81223;SDS011;70698;44.402;18.522;2024-02-26T03:27:10;92.10;;;40.95;;
81223;SDS011;70698;44.402;18.522;2024-02-26T03:29:39;97.13;;;41.47;;
81223;SDS011;70698;44.402;18.522;2024-02-26T03:32:05;141.30;;;56.78;;
81223;SDS011;70698;44.402;18.522;2024-02-26T03:34:31;133.85;;;58.80;;
81223;SDS011;70698;44.402;18.522;2024-02-26T03:36:59;142.85;;;62.55;;
81223;SDS011;70698;44.402;18.522;2024-02-26T03:39:25;164.93;;;73.78;;
81223;SDS011;70698;44.402;18.522;2024-02-26T03:41:51;163.88;;;69.97;;
81223;SDS011;70698;44.402;18.522;2024-02-26T03:44:17;148.90;;;65.20;;
81223;SDS011;70698;44.402;18.522;2024-02-26T03:46:42;182.48;;;79.25;;
81223;SDS011;70698;44.402;18.522;2024-02-26T03:49:08;164.60;;;69.25;;
81223;SDS011;70698;44.402;18.522;2024-02-26T03:51:34;149.73;;;64.60;;
81223;SDS011;70698;44.402;18.522;2024-02-26T03:54:00;159.88;;;70.20;;
81223;SDS011;70698;44.402;18.522;2024-02-26T03:56:26;149.82;;;64.63;;
81223;SDS011;70698;44.402;18.522;2024-02-26T03:58:52;149.55;;;62.60;;
81223;SDS011;70698;44.402;18.522;2024-02-26T04:01:18;161.27;;;73.38;;
81223;SDS011;70698;44.402;18.522;2024-02-26T04:03:44;181.45;;;77.10;;
81223;SDS011;70698;44.402;18.522;2024-02-26T04:06:09;152.32;;;62.88;;
81223;SDS011;70698;44.402;18.522;2024-02-26T04:08:36;133.77;;;59.00;;
81223;SDS011;70698;44.402;18.522;2024-02-26T04:11:03;118.60;;;54.75;;
81223;SDS011;70698;44.402;18.522;2024-02-26T04:13:32;122.18;;;53.33;;
81223;SDS011;70698;44.402;18.522;2024-02-26T04:15:59;162.85;;;73.80;;
81223;SDS011;70698;44.402;18.522;2024-02-26T04:18:26;126.05;;;57.17;;
81223;SDS011;70698;44.402;18.522;2024-02-26T04:20:52;178.30;;;75.85;;
81223;SDS011;70698;44.402;18.522;2024-02-26T04:23:18;178.00;;;75.45;;
81223;SDS011;70698;44.402;18.522;2024-02-26T04:25:44;175.93;;;74.38;;
81223;SDS011;70698;44.402;18.522;2024-02-26T04:28:10;124.43;;;55.35;;
81223;SDS011;70698;44.402;18.522;2024-02-26T04:30:36;114.15;;;52.55;;
81223;SDS011;70698;44.402;18.522;2024-02-26T04:33:02;161.63;;;67.75;;
81223;SDS011;70698;44.402;18.522;2024-02-26T04:35:27;150.05;;;66.20;;
81223;SDS011;70698;44.402;18.522;2024-02-26T04:37:53;107.15;;;50.65;;
81223;SDS011;70698;44.402;18.522;2024-02-26T04:40:18;150.60;;;68.63;;
81223;SDS011;70698;44.402;18.522;2024-02-26T04:42:44;95.20;;;43.75;;
81223;SDS011;70698;44.402;18.522;2024-02-26T04:45:10;68.72;;;32.03;;
81223;SDS011;70698;44.402;18.522;2024-02-26T04:47:35;66.30;;;32.30;;
81223;SDS011;70698;44.402;18.522;2024-02-26T04:50:01;63.28;;;30.88;;
81223;SDS011;70698;44.402;18.522;2024-02-26T04:52:27;64.70;;;32.53;;
81223;SDS011;70698;44.402;18.522;2024-02-26T04:54:52;47.17;;;25.95;;
81223;SDS011;70698;44.402;18.522;2024-02-26T04:57:18;58.60;;;30.30;;
81223;SDS011;70698;44.402;18.522;2024-02-26T04:59:44;109.47;;;53.55;;
81223;SDS011;70698;44.402;18.522;2024-02-26T05:02:11;165.18;;;66.38;;
81223;SDS011;70698;44.402;18.522;2024-02-26T05:04:37;155.10;;;63.67;;
81223;SDS011;70698;44.402;18.522;2024-02-26T05:07:03;145.20;;;61.50;;
81223;SDS011;70698;44.402;18.522;2024-02-26T05:09:28;150.85;;;61.55;;
81223;SDS011;70698;44.402;18.522;2024-02-26T05:11:54;216.43;;;89.78;;
81223;SDS011;70698;44.402;18.522;2024-02-26T05:14:20;243.50;;;86.68;;
81223;SDS011;70698;44.402;18.522;2024-02-26T05:16:46;81.78;;;36.28;;
81223;SDS011;70698;44.402;18.522;2024-02-26T05:19:13;83.60;;;34.63;;
81223;SDS011;70698;44.402;18.522;2024-02-26T05:21:39;62.35;;;27.35;;
81223;SDS011;70698;44.402;18.522;2024-02-26T05:24:05;55.60;;;26.00;;
81223;SDS011;70698;44.402;18.522;2024-02-26T05:26:31;252.57;;;81.05;;
81223;SDS011;70698;44.402;18.522;2024-02-26T05:28:57;76.75;;;34.05;;
81223;SDS011;70698;44.402;18.522;2024-02-26T05:31:25;99.97;;;41.00;;
81223;SDS011;70698;44.402;18.522;2024-02-26T05:33:51;164.48;;;58.25;;
81223;SDS011;70698;44.402;18.522;2024-02-26T05:36:20;492.33;;;205.63;;
81223;SDS011;70698;44.402;18.522;2024-02-26T05:38:47;643.45;;;252.82;;
81223;SDS011;70698;44.402;18.522;2024-02-26T05:41:16;253.90;;;89.32;;
81223;SDS011;70698;44.402;18.522;2024-02-26T05:43:50;183.45;;;65.53;;
81223;SDS011;70698;44.402;18.522;2024-02-26T05:48:51;94.65;;;41.17;;
81223;SDS011;70698;44.402;18.522;2024-02-26T05:51:18;108.68;;;47.35;;
81223;SDS011;70698;44.402;18.522;2024-02-26T05:53:43;166.38;;;66.18;;
81223;SDS011;70698;44.402;18.522;2024-02-26T05:56:09;179.93;;;82.03;;
81223;SDS011;70698;44.402;18.522;2024-02-26T05:58:35;149.40;;;64.57;;
81223;SDS011;70698;44.402;18.522;2024-02-26T06:01:01;148.02;;;65.53;;
81223;SDS011;70698;44.402;18.522;2024-02-26T06:03:26;145.02;;;62.70;;
81223;SDS011;70698;44.402;18.522;2024-02-26T06:05:52;172.00;;;71.68;;
81223;SDS011;70698;44.402;18.522;2024-02-26T06:08:18;166.68;;;70.30;;
81223;SDS011;70698;44.402;18.522;2024-02-26T06:10:44;179.95;;;76.00;;
81223;SDS011;70698;44.402;18.522;2024-02-26T06:13:09;167.00;;;72.75;;
81223;SDS011;70698;44.402;18.522;2024-02-26T06:15:35;189.75;;;84.82;;
81223;SDS011;70698;44.402;18.522;2024-02-26T06:18:00;171.85;;;77.72;;
81223;SDS011;70698;44.402;18.522;2024-02-26T06:20:26;164.90;;;74.68;;
81223;SDS011;70698;44.402;18.522;2024-02-26T06:22:52;171.20;;;78.47;;
81223;SDS011;70698;44.402;18.522;2024-02-26T06:25:17;354.20;;;139.27;;
81223;SDS011;70698;44.402;18.522;2024-02-26T06:27:43;545.50;;;197.13;;
81223;SDS011;70698;44.402;18.522;2024-02-26T06:30:08;452.90;;;184.00;;
81223;SDS011;70698;44.402;18.522;2024-02-26T06:32:36;264.63;;;107.88;;
81223;SDS011;70698;44.402;18.522;2024-02-26T06:35:02;540.97;;;203.75;;
81223;SDS011;70698;44.402;18.522;2024-02-26T06:37:34;375.25;;;135.95;;
81223;SDS011;70698;44.402;18.522;2024-02-26T06:40:00;211.27;;;88.35;;
81223;SDS011;70698;44.402;18.522;2024-02-26T06:42:29;221.77;;;95.78;;
81223;SDS011;70698;44.402;18.522;2024-02-26T06:44:55;437.02;;;152.82;;
81223;SDS011;70698;44.402;18.522;2024-02-26T06:47:21;247.15;;;103.03;;
81223;SDS011;70698;44.402;18.522;2024-02-26T06:49:46;126.32;;;55.92;;
81223;SDS011;70698;44.402;18.522;2024-02-26T06:52:12;78.95;;;41.33;;
81223;SDS011;70698;44.402;18.522;2024-02-26T06:54:38;176.35;;;74.35;;
81223;SDS011;70698;44.402;18.522;2024-02-26T06:57:03;351.23;;;131.13;;
81223;SDS011;70698;44.402;18.522;2024-02-26T06:59:29;332.20;;;130.35;;
81223;SDS011;70698;44.402;18.522;2024-02-26T07:01:55;242.50;;;98.80;;
81223;SDS011;70698;44.402;18.522;2024-02-26T07:04:20;315.25;;;127.75;;
81223;SDS011;70698;44.402;18.522;2024-02-26T07:06:46;208.70;;;91.28;;
81223;SDS011;70698;44.402;18.522;2024-02-26T07:09:12;225.68;;;99.63;;
81223;SDS011;70698;44.402;18.522;2024-02-26T07:11:38;217.75;;;95.30;;
81223;SDS011;70698;44.402;18.522;2024-02-26T07:14:08;232.23;;;100.53;;
81223;SDS011;70698;44.402;18.522;2024-02-26T07:16:34;223.77;;;98.20;;
81223;SDS011;70698;44.402;18.522;2024-02-26T07:18:59;248.50;;;113.30;;
81223;SDS011;70698;44.402;18.522;2024-02-26T07:21:25;297.20;;;126.00;;
81223;SDS011;70698;44.402;18.522;2024-02-26T07:23:50;306.63;;;134.40;;
81223;SDS011;70698;44.402;18.522;2024-02-26T07:26:17;264.77;;;118.82;;
81223;SDS011;70698;44.402;18.522;2024-02-26T07:28:44;199.27;;;93.25;;
81223;SDS011;70698;44.402;18.522;2024-02-26T07:31:10;198.98;;;93.25;;
81223;SDS011;70698;44.402;18.522;2024-02-26T07:33:35;178.55;;;83.28;;
81223;SDS011;70698;44.402;18.522;2024-02-26T07:36:01;192.18;;;89.28;;
81223;SDS011;70698;44.402;18.522;2024-02-26T07:38:27;199.15;;;93.70;;
81223;SDS011;70698;44.402;18.522;2024-02-26T07:40:53;202.90;;;100.53;;
81223;SDS011;70698;44.402;18.522;2024-02-26T07:43:18;211.00;;;104.88;;
81223;SDS011;70698;44.402;18.522;2024-02-26T07:45:44;182.70;;;89.75;;
81223;SDS011;70698;44.402;18.522;2024-02-26T07:48:09;239.90;;;116.22;;
81223;SDS011;70698;44.402;18.522;2024-02-26T07:50:35;190.95;;;96.07;;
81223;SDS011;70698;44.402;18.522;2024-02-26T07:53:01;106.30;;;51.83;;
81223;SDS011;70698;44.402;18.522;2024-02-26T07:55:27;89.65;;;48.03;;
81223;SDS011;70698;44.402;18.522;2024-02-26T07:57:52;96.53;;;48.35;;
81223;SDS011;70698;44.402;18.522;2024-02-26T08:00:18;81.53;;;45.40;;
81223;SDS011;70698;44.402;18.522;2024-02-26T08:02:44;79.65;;;45.20;;
81223;SDS011;70698;44.402;18.522;2024-02-26T08:05:10;79.22;;;42.38;;
81223;SDS011;70698;44.402;18.522;2024-02-26T08:07:35;82.70;;;43.10;;
81223;SDS011;70698;44.402;18.522;2024-02-26T08:10:01;62.70;;;34.67;;
81223;SDS011;70698;44.402;18.522;2024-02-26T08:12:27;48.85;;;26.80;;
81223;SDS011;70698;44.402;18.522;2024-02-26T08:14:53;47.15;;;28.52;;
81223;SDS011;70698;44.402;18.522;2024-02-26T08:17:18;55.85;;;31.75;;
81223;SDS011;70698;44.402;18.522;2024-02-26T08:19:44;114.60;;;60.15;;
81223;SDS011;70698;44.402;18.522;2024-02-26T08:22:09;187.15;;;92.07;;
81223;SDS011;70698;44.402;18.522;2024-02-26T08:24:41;161.48;;;81.15;;
81223;SDS011;70698;44.402;18.522;2024-02-26T08:27:07;164.80;;;79.93;;
81223;SDS011;70698;44.402;18.522;2024-02-26T08:29:33;194.80;;;101.78;;
81223;SDS011;70698;44.402;18.522;2024-02-26T08:31:58;207.05;;;102.13;;
81223;SDS011;70698;44.402;18.522;2024-02-26T08:34:24;196.55;;;98.40;;
81223;SDS011;70698;44.402;18.522;2024-02-26T08:36:50;175.00;;;86.20;;
81223;SDS011;70698;44.402;18.522;2024-02-26T08:39:16;161.85;;;78.38;;
81223;SDS011;70698;44.402;18.522;2024-02-26T08:41:43;134.65;;;66.22;;
81223;SDS011;70698;44.402;18.522;2024-02-26T08:44:09;135.18;;;65.18;;
81223;SDS011;70698;44.402;18.522;2024-02-26T08:46:35;112.95;;;57.75;;
81223;SDS011;70698;44.402;18.522;2024-02-26T08:49:00;103.97;;;50.85;;
81223;SDS011;70698;44.402;18.522;2024-02-26T08:51:26;83.05;;;42.05;;
81223;SDS011;70698;44.402;18.522;2024-02-26T08:53:52;67.80;;;34.65;;
81223;SDS011;70698;44.402;18.522;2024-02-26T08:56:19;62.90;;;32.58;;
81223;SDS011;70698;44.402;18.522;2024-02-26T08:58:46;55.17;;;28.33;;
81223;SDS011;70698;44.402;18.522;2024-02-26T09:01:14;42.23;;;24.73;;
81223;SDS011;70698;44.402;18.522;2024-02-26T09:03:40;35.50;;;20.98;;
81223;SDS011;70698;44.402;18.522;2024-02-26T09:06:06;35.63;;;20.33;;
81223;SDS011;70698;44.402;18.522;2024-02-26T09:08:35;30.88;;;19.33;;
81223;SDS011;70698;44.402;18.522;2024-02-26T09:11:01;45.63;;;25.35;;
81223;SDS011;70698;44.402;18.522;2024-02-26T09:13:31;50.15;;;28.67;;
81223;SDS011;70698;44.402;18.522;2024-02-26T09:15:57;49.85;;;28.40;;
81223;SDS011;70698;44.402;18.522;2024-02-26T09:18:24;51.50;;;28.02;;
81223;SDS011;70698;44.402;18.522;2024-02-26T09:20:49;58.17;;;31.50;;
81223;SDS011;70698;44.402;18.522;2024-02-26T09:23:16;63.72;;;33.75;;
81223;SDS011;70698;44.402;18.522;2024-02-26T09:25:42;57.67;;;31.40;;
81223;SDS011;70698;44.402;18.522;2024-02-26T09:28:07;57.83;;;32.83;;
81223;SDS011;70698;44.402;18.522;2024-02-26T09:30:33;56.38;;;31.27;;
81223;SDS011;70698;44.402;18.522;2024-02-26T09:32:58;49.15;;;28.50;;
81223;SDS011;70698;44.402;18.522;2024-02-26T09:35:24;41.80;;;23.00;;
81223;SDS011;70698;44.402;18.522;2024-02-26T09:37:51;38.78;;;22.20;;
81223;SDS011;70698;44.402;18.522;2024-02-26T09:40:17;31.17;;;17.17;;
81223;SDS011;70698;44.402;18.522;2024-02-26T09:42:43;27.75;;;17.00;;
81223;SDS011;70698;44.402;18.522;2024-02-26T09:45:17;26.13;;;14.93;;
81223;SDS011;70698;44.402;18.522;2024-02-26T09:47:44;25.48;;;13.93;;
81223;SDS011;70698;44.402;18.522;2024-02-26T09:50:13;21.65;;;12.73;;
81223;SDS011;70698;44.402;18.522;2024-02-26T09:52:41;22.02;;;12.18;;
81223;SDS011;70698;44.402;18.522;2024-02-26T09:55:07;19.38;;;11.48;;
81223;SDS011;70698;44.402;18.522;2024-02-26T09:57:37;24.55;;;13.18;;
81223;SDS011;70698;44.402;18.522;2024-02-26T10:00:03;20.98;;;12.13;;
81223;SDS011;70698;44.402;18.522;2024-02-26T10:02:33;18.15;;;9.68;;
81223;SDS011;70698;44.402;18.522;2024-02-26T10:05:02;15.32;;;8.07;;
81223;SDS011;70698;44.402;18.522;2024-02-26T10:07:33;13.05;;;7.22;;
81223;SDS011;70698;44.402;18.522;2024-02-26T10:10:01;9.88;;;5.70;;
81223;SDS011;70698;44.402;18.522;2024-02-26T10:12:27;12.38;;;6.78;;
81223;SDS011;70698;44.402;18.522;2024-02-26T10:14:54;14.05;;;7.32;;
81223;SDS011;70698;44.402;18.522;2024-02-26T10:17:20;13.93;;;8.20;;
81223;SDS011;70698;44.402;18.522;2024-02-26T10:19:45;15.35;;;8.73;;
81223;SDS011;70698;44.402;18.522;2024-02-26T10:22:11;16.98;;;10.73;;
81223;SDS011;70698;44.402;18.522;2024-02-26T10:24:36;17.48;;;11.48;;
81223;SDS011;70698;44.402;18.522;2024-02-26T10:27:02;13.10;;;8.73;;
81223;SDS011;70698;44.402;18.522;2024-02-26T10:29:29;13.07;;;9.30;;
81223;SDS011;70698;44.402;18.522;2024-02-26T10:31:54;18.35;;;9.85;;
81223;SDS011;70698;44.402;18.522;2024-02-26T10:34:21;14.32;;;8.27;;
81223;SDS011;70698;44.402;18.522;2024-02-26T10:36:47;15.52;;;9.65;;
81223;SDS011;70698;44.402;18.522;2024-02-26T10:39:14;15.73;;;9.57;;
81223;SDS011;70698;44.402;18.522;2024-02-26T10:41:41;21.42;;;11.60;;
81223;SDS011;70698;44.402;18.522;2024-02-26T10:44:10;17.73;;;10.88;;
81223;SDS011;70698;44.402;18.522;2024-02-26T10:46:37;20.88;;;13.55;;
81223;SDS011;70698;44.402;18.522;2024-02-26T10:49:08;24.05;;;13.50;;
81223;SDS011;70698;44.402;18.522;2024-02-26T10:51:39;26.10;;;14.65;;
81223;SDS011;70698;44.402;18.522;2024-02-26T10:54:09;22.25;;;13.43;;
81223;SDS011;70698;44.402;18.522;2024-02-26T10:56:40;25.48;;;15.15;;
81223;SDS011;70698;44.402;18.522;2024-02-26T10:59:09;28.90;;;14.80;;
81223;SDS011;70698;44.402;18.522;2024-02-26T11:01:37;32.95;;;15.13;;
81223;SDS011;70698;44.402;18.522;2024-02-26T11:04:05;33.90;;;15.00;;
81223;SDS011;70698;44.402;18.522;2024-02-26T11:06:31;23.48;;;13.63;;
81223;SDS011;70698;44.402;18.522;2024-02-26T11:09:00;23.75;;;14.15;;
81223;SDS011;70698;44.402;18.522;2024-02-26T11:11:27;26.50;;;13.50;;
81223;SDS011;70698;44.402;18.522;2024-02-26T11:13:54;20.23;;;12.40;;
81223;SDS011;70698;44.402;18.522;2024-02-26T11:16:23;20.90;;;13.25;;
81223;SDS011;70698;44.402;18.522;2024-02-26T11:18:51;26.95;;;14.93;;
81223;SDS011;70698;44.402;18.522;2024-02-26T11:21:20;26.48;;;16.08;;
81223;SDS011;70698;44.402;18.522;2024-02-26T11:23:53;29.20;;;16.15;;
81223;SDS011;70698;44.402;18.522;2024-02-26T11:26:19;29.33;;;17.73;;
81223;SDS011;70698;44.402;18.522;2024-02-26T11:28:47;36.83;;;20.92;;
81223;SDS011;70698;44.402;18.522;2024-02-26T11:31:14;40.60;;;23.13;;
81223;SDS011;70698;44.402;18.522;2024-02-26T11:33:40;44.83;;;27.25;;
81223;SDS011;70698;44.402;18.522;2024-02-26T11:36:09;29.60;;;17.73;;
81223;SDS011;70698;44.402;18.522;2024-02-26T11:38:36;30.02;;;18.45;;
81223;SDS011;70698;44.402;18.522;2024-02-26T11:41:02;39.80;;;21.63;;
81223;SDS011;70698;44.402;18.522;2024-02-26T11:46:34;24.92;;;14.32;;
81223;SDS011;70698;44.402;18.522;2024-02-26T11:51:52;24.33;;;13.57;;
81223;SDS011;70698;44.402;18.522;2024-02-26T11:54:38;23.70;;;13.38;;
81223;SDS011;70698;44.402;18.522;2024-02-26T11:59:47;18.95;;;11.98;;
81223;SDS011;70698;44.402;18.522;2024-02-26T12:02:37;23.25;;;13.95;;
81223;SDS011;70698;44.402;18.522;2024-02-26T12:05:10;36.70;;;21.15;;
81223;SDS011;70698;44.402;18.522;2024-02-26T12:07:42;21.90;;;13.32;;
81223;SDS011;70698;44.402;18.522;2024-02-26T12:10:13;24.13;;;13.05;;
81223;SDS011;70698;44.402;18.522;2024-02-26T12:12:54;24.38;;;13.07;;
81223;SDS011;70698;44.402;18.522;2024-02-26T12:15:23;19.92;;;10.60;;
81223;SDS011;70698;44.402;18.522;2024-02-26T12:17:49;23.25;;;10.93;;
81223;SDS011;70698;44.402;18.522;2024-02-26T12:20:16;17.67;;;10.90;;
81223;SDS011;70698;44.402;18.522;2024-02-26T12:22:44;29.63;;;18.48;;
81223;SDS011;70698;44.402;18.522;2024-02-26T12:25:13;31.85;;;17.88;;
81223;SDS011;70698;44.402;18.522;2024-02-26T12:27:39;22.30;;;12.98;;
81223;SDS011;70698;44.402;18.522;2024-02-26T12:30:05;24.30;;;11.25;;
81223;SDS011;70698;44.402;18.522;2024-02-26T12:32:31;26.63;;;15.07;;
81223;SDS011;70698;44.402;18.522;2024-02-26T12:34:57;20.35;;;12.38;;
81223;SDS011;70698;44.402;18.522;2024-02-26T12:37:25;17.80;;;10.80;;
81223;SDS011;70698;44.402;18.522;2024-02-26T12:39:52;17.88;;;11.82;;
81223;SDS011;70698;44.402;18.522;2024-02-26T12:42:18;19.65;;;11.90;;
81223;SDS011;70698;44.402;18.522;2024-02-26T12:44:45;16.45;;;10.82;;
81223;SDS011;70698;44.402;18.522;2024-02-26T12:47:11;17.75;;;10.32;;
81223;SDS011;70698;44.402;18.522;2024-02-26T12:49:48;18.60;;;11.20;;
81223;SDS011;70698;44.402;18.522;2024-02-26T12:52:14;17.50;;;11.38;;
81223;SDS011;70698;44.402;18.522;2024-02-26T12:54:41;16.43;;;10.93;;
81223;SDS011;70698;44.402;18.522;2024-02-26T12:57:08;17.88;;;10.88;;
81223;SDS011;70698;44.402;18.522;2024-02-26T12:59:34;18.95;;;11.90;;
81223;SDS011;70698;44.402;18.522;2024-02-26T13:02:01;20.35;;;12.07;;
81223;SDS011;70698;44.402;18.522;2024-02-26T13:04:29;18.17;;;11.40;;
81223;SDS011;70698;44.402;18.522;2024-02-26T13:06:56;18.85;;;12.13;;
81223;SDS011;70698;44.402;18.522;2024-02-26T13:09:27;20.55;;;12.82;;
81223;SDS011;70698;44.402;18.522;2024-02-26T13:11:54;19.02;;;13.13;;
81223;SDS011;70698;44.402;18.522;2024-02-26T13:14:20;21.77;;;12.95;;
81223;SDS011;70698;44.402;18.522;2024-02-26T13:16:56;22.90;;;13.80;;
81223;SDS011;70698;44.402;18.522;2024-02-26T13:19:22;25.98;;;15.45;;
81223;SDS011;70698;44.402;18.522;2024-02-26T13:21:48;26.02;;;14.63;;
81223;SDS011;70698;44.402;18.522;2024-02-26T13:24:14;28.85;;;15.77;;
81223;SDS011;70698;44.402;18.522;2024-02-26T13:26:40;30.73;;;15.38;;
81223;SDS011;70698;44.402;18.522;2024-02-26T13:29:05;23.20;;;14.20;;
81223;SDS011;70698;44.402;18.522;2024-02-26T13:31:31;28.45;;;15.30;;
81223;SDS011;70698;44.402;18.522;2024-02-26T13:34:03;28.73;;;16.63;;
81223;SDS011;70698;44.402;18.522;2024-02-26T13:36:29;26.25;;;13.57;;
81223;SDS011;70698;44.402;18.522;2024-02-26T13:38:55;23.85;;;13.55;;
81223;SDS011;70698;44.402;18.522;2024-02-26T13:41:21;24.58;;;14.75;;
81223;SDS011;70698;44.402;18.522;2024-02-26T13:43:47;26.67;;;15.05;;
81223;SDS011;70698;44.402;18.522;2024-02-26T13:46:14;29.70;;;15.77;;
81223;SDS011;70698;44.402;18.522;2024-02-26T13:48:43;25.98;;;14.40;;
81223;SDS011;70698;44.402;18.522;2024-02-26T13:51:09;25.42;;;14.45;;
81223;SDS011;70698;44.402;18.522;2024-02-26T13:53:35;23.40;;;13.80;;
81223;SDS011;70698;44.402;18.522;2024-02-26T13:56:00;25.58;;;13.35;;
81223;SDS011;70698;44.402;18.522;2024-02-26T13:58:26;29.10;;;14.57;;
81223;SDS011;70698;44.402;18.522;2024-02-26T14:00:53;30.63;;;14.50;;
81223;SDS011;70698;44.402;18.522;2024-02-26T14:03:21;23.52;;;13.55;;
81223;SDS011;70698;44.402;18.522;2024-02-26T14:05:47;27.63;;;12.23;;
81223;SDS011;70698;44.402;18.522;2024-02-26T14:08:14;26.92;;;11.77;;
81223;SDS011;70698;44.402;18.522;2024-02-26T14:10:40;25.05;;;12.75;;
81223;SDS011;70698;44.402;18.522;2024-02-26T14:13:05;22.98;;;11.38;;